Esl America — 5BPP4 — position and weather

sailwx.info

Track history (hours):
 
Tides and Currents Weather Stations Pressure Air Temp Water Temp Dewpoint Dewpoint Depression Visibility Wind Speed Wind Dir Waves Ship Positions

Esl America

Last reported at 2017-Nov-23 15:42 UTC. Time now 2017-Nov-23 21:01 UTC.
Position N 56°54' E 008°07'.

Length 143 m; draft 7.5 m.

Type: Cargo ship. MMSI: 212558000.

Date/timePositionNaut miles runAvg speedWind from/ knotsBaromVisibWave heightAir tempDewpointWater temp
2017-Nov-23 15:42N 56°54' E 008°07'313.9
2017-Nov-23 15:30N 56°52' E 008°04'713.6
2017-Nov-23 15:00N 56°46' E 007°59'713.4
2017-Nov-23 14:30N 56°40' E 007°54'713.2
2017-Nov-23 14:00N 56°33' E 007°49'6811.7
2017-Nov-23 08:10N 55°26' E 007°39'2 9.2
2017-Nov-23 07:59N 55°25' E 007°42'5 9.4
2017-Nov-23 07:31N 55°25' E 007°49'5 9.5
2017-Nov-23 06:56N 55°24' E 007°59'4 9.8
2017-Nov-23 06:29N 55°24' E 008°06'4 8.9
2017-Nov-23 06:00N 55°25' E 008°13'9 5.6
2017-Nov-23 04:27N 55°27' E 008°29'0 0.0
2017-Nov-23 04:00N 55°27' E 008°29'0 0.1
2017-Nov-23 03:15N 55°27' E 008°28'0 0.0
2017-Nov-23 03:00N 55°27' E 008°28'0 0.0
2017-Nov-23 02:27N 55°27' E 008°28'0 0.0
2017-Nov-23 01:42N 55°27' E 008°28'0 0.0
2017-Nov-23 01:30N 55°27' E 008°28'0 0.0
2017-Nov-23 01:00N 55°27' E 008°28'0 0.0
2017-Nov-23 00:30N 55°27' E 008°28'0 0.0
2017-Nov-23 00:00N 55°27' E 008°28'0 0.0
2017-Nov-22 23:30N 55°27' E 008°28'0 0.0
2017-Nov-22 23:00N 55°27' E 008°28'0 0.0
2017-Nov-22 22:21N 55°27' E 008°28'0 0.0
2017-Nov-22 21:48N 55°27' E 008°28'0 0.0
2017-Nov-22 21:21N 55°27' E 008°28'0 0.0
2017-Nov-22 20:51N 55°27' E 008°28'0 0.0
2017-Nov-22 20:24N 55°27' E 008°28'0 0.0
2017-Nov-22 19:54N 55°27' E 008°28'0 0.0
2017-Nov-22 19:09N 55°27' E 008°28'  
2017-Nov-19 22:34N 48°48' W 005°31'3512.7
2017-Nov-19 19:47N 48°17' W 005°57'413.5
2017-Nov-19 19:29N 48°14' W 005°60'1013.6
2017-Nov-19 18:46N 48°05' W 006°07'1714.0
2017-Nov-19 17:33N 47°50' W 006°19'113.8
2017-Nov-19 17:30N 47°49' W 006°19'714.6
2017-Nov-19 17:00N 47°43' W 006°24'914.9
2017-Nov-19 16:25N 47°36' W 006°31'1215.0
2017-Nov-19 15:38N 47°25' W 006°40'  
2017-Nov-16 16:21N 39°22' W 009°49'513.9
2017-Nov-16 16:00N 39°18' W 009°49'714.3
2017-Nov-16 15:30N 39°10' W 009°50'714.3
2017-Nov-16 15:00N 39°03' W 009°50'714.2
2017-Nov-16 14:30N 38°56' W 009°51'714.5
2017-Nov-16 14:00N 38°49' W 009°52'714.5
2017-Nov-16 13:30N 38°42' W 009°51'714.4
2017-Nov-16 13:00N 38°35' W 009°49'714.4
2017-Nov-16 12:30N 38°28' W 009°47'714.6
2017-Nov-16 12:00N 38°21' W 009°45'1014.6
2017-Nov-16 11:20N 38°11' W 009°42'514.4
2017-Nov-16 10:59N 38°06' W 009°41'714.7
2017-Nov-16 10:30N 37°59' W 009°38'815.4
2017-Nov-16 09:59N 37°52' W 009°36'4014.9
2017-Nov-16 07:18N 37°12' W 009°25'414.7
2017-Nov-16 06:59N 37°08' W 009°24'  
Track history (hours):
 
Tides and Currents Weather Stations Pressure Air Temp Water Temp Dewpoint Dewpoint Depression Visibility Wind Speed Wind Dir Waves Ship Positions

Esl America

Last reported at 2017-Nov-23 15:42 UTC. Time now 2017-Nov-23 21:01 UTC.
Position N 56°54' E 008°07'.

Length 143 m; draft 7.5 m.

Type: Cargo ship. MMSI: 212558000.

Date/timePositionNaut miles runAvg speedWind from/ knotsBaromVisibWave heightAir tempDewpointWater temp
2017-Nov-23 15:42N 56°54' E 008°07'313.9
2017-Nov-23 15:30N 56°52' E 008°04'713.6
2017-Nov-23 15:00N 56°46' E 007°59'713.4
2017-Nov-23 14:30N 56°40' E 007°54'713.2
2017-Nov-23 14:00N 56°33' E 007°49'6811.7
2017-Nov-23 08:10N 55°26' E 007°39'2 9.2
2017-Nov-23 07:59N 55°25' E 007°42'5 9.4
2017-Nov-23 07:31N 55°25' E 007°49'5 9.5
2017-Nov-23 06:56N 55°24' E 007°59'4 9.8
2017-Nov-23 06:29N 55°24' E 008°06'4 8.9
2017-Nov-23 06:00N 55°25' E 008°13'9 5.6
2017-Nov-23 04:27N 55°27' E 008°29'0 0.0
2017-Nov-23 04:00N 55°27' E 008°29'0 0.1
2017-Nov-23 03:15N 55°27' E 008°28'0 0.0
2017-Nov-23 03:00N 55°27' E 008°28'0 0.0
2017-Nov-23 02:27N 55°27' E 008°28'0 0.0
2017-Nov-23 01:42N 55°27' E 008°28'0 0.0
2017-Nov-23 01:30N 55°27' E 008°28'0 0.0
2017-Nov-23 01:00N 55°27' E 008°28'0 0.0
2017-Nov-23 00:30N 55°27' E 008°28'0 0.0
2017-Nov-23 00:00N 55°27' E 008°28'0 0.0
2017-Nov-22 23:30N 55°27' E 008°28'0 0.0
2017-Nov-22 23:00N 55°27' E 008°28'0 0.0
2017-Nov-22 22:21N 55°27' E 008°28'0 0.0
2017-Nov-22 21:48N 55°27' E 008°28'0 0.0
2017-Nov-22 21:21N 55°27' E 008°28'0 0.0
2017-Nov-22 20:51N 55°27' E 008°28'0 0.0
2017-Nov-22 20:24N 55°27' E 008°28'0 0.0
2017-Nov-22 19:54N 55°27' E 008°28'0 0.0
2017-Nov-22 19:09N 55°27' E 008°28'  
2017-Nov-19 22:34N 48°48' W 005°31'3512.7
2017-Nov-19 19:47N 48°17' W 005°57'413.5
2017-Nov-19 19:29N 48°14' W 005°60'1013.6
2017-Nov-19 18:46N 48°05' W 006°07'1714.0
2017-Nov-19 17:33N 47°50' W 006°19'113.8
2017-Nov-19 17:30N 47°49' W 006°19'714.6
2017-Nov-19 17:00N 47°43' W 006°24'914.9
2017-Nov-19 16:25N 47°36' W 006°31'1215.0
2017-Nov-19 15:38N 47°25' W 006°40'  
2017-Nov-16 16:21N 39°22' W 009°49'513.9
2017-Nov-16 16:00N 39°18' W 009°49'714.3
2017-Nov-16 15:30N 39°10' W 009°50'714.3
2017-Nov-16 15:00N 39°03' W 009°50'714.2
2017-Nov-16 14:30N 38°56' W 009°51'714.5
2017-Nov-16 14:00N 38°49' W 009°52'714.5
2017-Nov-16 13:30N 38°42' W 009°51'714.4
2017-Nov-16 13:00N 38°35' W 009°49'714.4
2017-Nov-16 12:30N 38°28' W 009°47'714.6
2017-Nov-16 12:00N 38°21' W 009°45'1014.6
2017-Nov-16 11:20N 38°11' W 009°42'514.4
2017-Nov-16 10:59N 38°06' W 009°41'714.7
2017-Nov-16 10:30N 37°59' W 009°38'815.4
2017-Nov-16 09:59N 37°52' W 009°36'4014.9
2017-Nov-16 07:18N 37°12' W 009°25'414.7
2017-Nov-16 06:59N 37°08' W 009°24'  

Dump ship's entire track history